Andover, Illinois
Current Conditions -  °F | °C
As of 11:52 AM on Thursday 23 Oct 2014 (Local Time) from KMLI Reporting Station
Overcast Overcast  
Wind Chill: 14°   Ceiling: 6000
Heat Index: 14°   Visibility: 10mi
Dew Point:   Wind: 7mph
Humidity: 60%   Direction: 190°S
Pressure: 30.11"   Gusts: NA
Location:  41.29°N, 90.29°W
Report Text: KMLI 231652Z 19006KT 10SM SCT046 OVC060 14/07 A3011 RMK AO2 SLP196 T01440067
Loading
Personal Weather Stations






























Interactive Weather Map
Tropical Storm Tracking
New forecast layout! Learn more

10-Day Weather Forecast

Advertisements
Track Severe Weather on mobile